sensor_id;sensor_type;location;lat;lon;timestamp;temperature;humidity
20827;DHT22;10574;52.508;13.236;2023-05-25T00:01:43;10.80;99.90
20827;DHT22;10574;52.508;13.236;2023-05-25T00:04:12;10.70;99.90
20827;DHT22;10574;52.508;13.236;2023-05-25T00:06:42;10.70;99.90
20827;DHT22;10574;52.508;13.236;2023-05-25T00:09:11;10.70;99.90
20827;DHT22;10574;52.508;13.236;2023-05-25T00:11:38;10.60;99.90
20827;DHT22;10574;52.508;13.236;2023-05-25T00:14:06;10.60;99.90
20827;DHT22;10574;52.508;13.236;2023-05-25T00:16:34;10.60;99.90
20827;DHT22;10574;52.508;13.236;2023-05-25T00:19:05;10.60;99.90
20827;DHT22;10574;52.508;13.236;2023-05-25T00:21:32;10.60;99.90
20827;DHT22;10574;52.508;13.236;2023-05-25T00:24:02;10.60;99.90
20827;DHT22;10574;52.508;13.236;2023-05-25T00:26:29;10.60;99.90
20827;DHT22;10574;52.508;13.236;2023-05-25T00:28:57;10.60;99.90
20827;DHT22;10574;52.508;13.236;2023-05-25T00:31:26;10.60;99.90
20827;DHT22;10574;52.508;13.236;2023-05-25T00:33:55;10.60;99.90
20827;DHT22;10574;52.508;13.236;2023-05-25T00:36:23;10.60;99.90
20827;DHT22;10574;52.508;13.236;2023-05-25T00:38:51;10.50;99.90
20827;DHT22;10574;52.508;13.236;2023-05-25T00:41:19;10.50;99.90
20827;DHT22;10574;52.508;13.236;2023-05-25T00:43:46;10.50;99.90
20827;DHT22;10574;52.508;13.236;2023-05-25T00:46:14;10.50;99.90
20827;DHT22;10574;52.508;13.236;2023-05-25T00:48:43;10.40;99.90
20827;DHT22;10574;52.508;13.236;2023-05-25T00:51:13;10.40;99.90
20827;DHT22;10574;52.508;13.236;2023-05-25T00:53:41;10.40;99.90
20827;DHT22;10574;52.508;13.236;2023-05-25T00:56:17;10.30;99.90
20827;DHT22;10574;52.508;13.236;2023-05-25T00:58:52;10.30;99.90
20827;DHT22;10574;52.508;13.236;2023-05-25T01:01:21;10.30;99.90
20827;DHT22;10574;52.508;13.236;2023-05-25T01:03:51;10.30;99.90
20827;DHT22;10574;52.508;13.236;2023-05-25T01:06:22;10.30;99.90
20827;DHT22;10574;52.508;13.236;2023-05-25T01:08:53;10.30;99.90
20827;DHT22;10574;52.508;13.236;2023-05-25T01:11:25;10.30;99.90
20827;DHT22;10574;52.508;13.236;2023-05-25T01:13:54;10.30;99.90
20827;DHT22;10574;52.508;13.236;2023-05-25T01:16:24;10.20;99.90
20827;DHT22;10574;52.508;13.236;2023-05-25T01:18:52;10.20;99.90
20827;DHT22;10574;52.508;13.236;2023-05-25T01:21:38;10.20;99.90
20827;DHT22;10574;52.508;13.236;2023-05-25T01:24:14;10.20;99.90
20827;DHT22;10574;52.508;13.236;2023-05-25T01:26:41;10.20;99.90
20827;DHT22;10574;52.508;13.236;2023-05-25T01:29:10;10.10;99.90
20827;DHT22;10574;52.508;13.236;2023-05-25T01:31:38;10.10;99.90
20827;DHT22;10574;52.508;13.236;2023-05-25T01:34:07;10.10;99.90
20827;DHT22;10574;52.508;13.236;2023-05-25T01:36:35;10.10;99.90
20827;DHT22;10574;52.508;13.236;2023-05-25T01:39:05;10.10;99.90
20827;DHT22;10574;52.508;13.236;2023-05-25T01:41:33;10.10;99.90
20827;DHT22;10574;52.508;13.236;2023-05-25T01:44:00;10.10;99.90
20827;DHT22;10574;52.508;13.236;2023-05-25T01:46:39;10.10;99.90
20827;DHT22;10574;52.508;13.236;2023-05-25T01:49:15;10.10;99.90
20827;DHT22;10574;52.508;13.236;2023-05-25T01:54:18;10.10;99.90
20827;DHT22;10574;52.508;13.236;2023-05-25T01:56:49;10.10;99.90
20827;DHT22;10574;52.508;13.236;2023-05-25T01:59:20;10.00;99.90
20827;DHT22;10574;52.508;13.236;2023-05-25T02:01:48;10.00;99.90
20827;DHT22;10574;52.508;13.236;2023-05-25T02:04:17;10.00;99.90
20827;DHT22;10574;52.508;13.236;2023-05-25T02:06:50;10.00;99.90
20827;DHT22;10574;52.508;13.236;2023-05-25T02:09:18;10.00;99.90
20827;DHT22;10574;52.508;13.236;2023-05-25T02:11:45;9.90;99.90
20827;DHT22;10574;52.508;13.236;2023-05-25T02:14:13;10.00;99.90
20827;DHT22;10574;52.508;13.236;2023-05-25T02:16:41;9.90;99.90
20827;DHT22;10574;52.508;13.236;2023-05-25T02:19:11;9.90;99.90
20827;DHT22;10574;52.508;13.236;2023-05-25T02:21:41;9.90;99.90
20827;DHT22;10574;52.508;13.236;2023-05-25T02:24:09;9.90;99.90
20827;DHT22;10574;52.508;13.236;2023-05-25T02:26:37;9.90;99.90
20827;DHT22;10574;52.508;13.236;2023-05-25T02:29:05;9.90;99.90
20827;DHT22;10574;52.508;13.236;2023-05-25T02:31:33;9.90;99.90
20827;DHT22;10574;52.508;13.236;2023-05-25T02:34:01;9.90;99.90
20827;DHT22;10574;52.508;13.236;2023-05-25T02:36:29;9.80;99.90
20827;DHT22;10574;52.508;13.236;2023-05-25T02:38:57;9.80;99.90
20827;DHT22;10574;52.508;13.236;2023-05-25T02:41:25;9.80;99.90
20827;DHT22;10574;52.508;13.236;2023-05-25T02:43:53;9.80;99.90
20827;DHT22;10574;52.508;13.236;2023-05-25T02:46:21;9.80;99.90
20827;DHT22;10574;52.508;13.236;2023-05-25T02:48:50;9.80;99.90
20827;DHT22;10574;52.508;13.236;2023-05-25T02:51:18;9.70;99.90
20827;DHT22;10574;52.508;13.236;2023-05-25T02:53:46;9.70;99.90
20827;DHT22;10574;52.508;13.236;2023-05-25T02:56:13;9.70;99.90
20827;DHT22;10574;52.508;13.236;2023-05-25T02:58:41;9.70;99.90
20827;DHT22;10574;52.508;13.236;2023-05-25T03:01:09;9.60;99.90
20827;DHT22;10574;52.508;13.236;2023-05-25T03:03:38;9.70;99.90
20827;DHT22;10574;52.508;13.236;2023-05-25T03:06:06;9.70;99.90
20827;DHT22;10574;52.508;13.236;2023-05-25T03:08:34;9.70;99.90
20827;DHT22;10574;52.508;13.236;2023-05-25T03:11:01;9.60;99.90
20827;DHT22;10574;52.508;13.236;2023-05-25T03:13:29;9.60;99.90
20827;DHT22;10574;52.508;13.236;2023-05-25T03:15:57;9.70;99.90
20827;DHT22;10574;52.508;13.236;2023-05-25T03:18:25;9.70;99.90
20827;DHT22;10574;52.508;13.236;2023-05-25T03:20:53;9.70;99.90
20827;DHT22;10574;52.508;13.236;2023-05-25T03:23:21;9.60;99.90
20827;DHT22;10574;52.508;13.236;2023-05-25T03:25:49;9.70;99.90
20827;DHT22;10574;52.508;13.236;2023-05-25T03:28:17;9.60;99.90
20827;DHT22;10574;52.508;13.236;2023-05-25T03:30:45;9.60;99.90
20827;DHT22;10574;52.508;13.236;2023-05-25T03:33:13;9.60;99.90
20827;DHT22;10574;52.508;13.236;2023-05-25T03:35:41;9.50;99.90
20827;DHT22;10574;52.508;13.236;2023-05-25T03:38:08;9.60;99.90
20827;DHT22;10574;52.508;13.236;2023-05-25T03:40:36;9.60;99.90
20827;DHT22;10574;52.508;13.236;2023-05-25T03:43:04;9.70;99.90
20827;DHT22;10574;52.508;13.236;2023-05-25T03:45:31;9.70;99.90
20827;DHT22;10574;52.508;13.236;2023-05-25T03:47:59;9.80;99.90
20827;DHT22;10574;52.508;13.236;2023-05-25T03:50:26;9.80;99.90
20827;DHT22;10574;52.508;13.236;2023-05-25T03:52:54;9.90;99.90
20827;DHT22;10574;52.508;13.236;2023-05-25T03:55:22;9.90;99.90
20827;DHT22;10574;52.508;13.236;2023-05-25T03:57:49;9.90;99.90
20827;DHT22;10574;52.508;13.236;2023-05-25T04:00:18;10.00;99.90
20827;DHT22;10574;52.508;13.236;2023-05-25T04:02:46;10.00;99.90
20827;DHT22;10574;52.508;13.236;2023-05-25T04:05:14;10.10;99.90
20827;DHT22;10574;52.508;13.236;2023-05-25T04:07:41;10.10;99.90
20827;DHT22;10574;52.508;13.236;2023-05-25T04:10:10;10.10;99.90
20827;DHT22;10574;52.508;13.236;2023-05-25T04:12:38;10.00;99.90
20827;DHT22;10574;52.508;13.236;2023-05-25T04:15:06;10.00;99.90
20827;DHT22;10574;52.508;13.236;2023-05-25T04:17:35;10.10;99.90
20827;DHT22;10574;52.508;13.236;2023-05-25T04:20:03;10.10;99.90
20827;DHT22;10574;52.508;13.236;2023-05-25T04:22:31;10.10;99.90
20827;DHT22;10574;52.508;13.236;2023-05-25T04:24:59;10.10;99.90
20827;DHT22;10574;52.508;13.236;2023-05-25T04:27:27;10.20;99.90
20827;DHT22;10574;52.508;13.236;2023-05-25T04:29:54;10.30;99.90
20827;DHT22;10574;52.508;13.236;2023-05-25T04:32:22;10.20;99.90
20827;DHT22;10574;52.508;13.236;2023-05-25T04:34:50;10.30;99.90
20827;DHT22;10574;52.508;13.236;2023-05-25T04:37:19;10.40;99.90
20827;DHT22;10574;52.508;13.236;2023-05-25T04:39:47;10.40;99.90
20827;DHT22;10574;52.508;13.236;2023-05-25T04:42:14;10.50;99.90
20827;DHT22;10574;52.508;13.236;2023-05-25T04:44:42;10.60;99.90
20827;DHT22;10574;52.508;13.236;2023-05-25T04:47:10;10.70;99.90
20827;DHT22;10574;52.508;13.236;2023-05-25T04:49:38;10.90;99.90
20827;DHT22;10574;52.508;13.236;2023-05-25T04:52:07;11.10;99.90
20827;DHT22;10574;52.508;13.236;2023-05-25T04:54:34;11.40;99.90
20827;DHT22;10574;52.508;13.236;2023-05-25T04:57:03;11.60;99.90
20827;DHT22;10574;52.508;13.236;2023-05-25T04:59:30;11.90;99.90
20827;DHT22;10574;52.508;13.236;2023-05-25T05:01:59;12.40;99.90
20827;DHT22;10574;52.508;13.236;2023-05-25T05:04:26;13.10;99.90
20827;DHT22;10574;52.508;13.236;2023-05-25T05:06:54;13.80;99.90
20827;DHT22;10574;52.508;13.236;2023-05-25T05:09:22;14.30;99.90
20827;DHT22;10574;52.508;13.236;2023-05-25T05:11:49;14.70;99.90
20827;DHT22;10574;52.508;13.236;2023-05-25T05:14:17;15.00;99.90
20827;DHT22;10574;52.508;13.236;2023-05-25T05:16:45;15.30;99.90
20827;DHT22;10574;52.508;13.236;2023-05-25T05:19:13;15.60;99.90
20827;DHT22;10574;52.508;13.236;2023-05-25T05:21:41;16.20;99.90
20827;DHT22;10574;52.508;13.236;2023-05-25T05:24:08;17.00;99.90
20827;DHT22;10574;52.508;13.236;2023-05-25T05:26:38;17.40;99.90
20827;DHT22;10574;52.508;13.236;2023-05-25T05:29:07;17.30;99.90
20827;DHT22;10574;52.508;13.236;2023-05-25T05:31:35;16.90;99.90
20827;DHT22;10574;52.508;13.236;2023-05-25T05:34:03;16.40;99.90
20827;DHT22;10574;52.508;13.236;2023-05-25T05:36:31;15.90;99.90
20827;DHT22;10574;52.508;13.236;2023-05-25T05:38:59;15.40;99.90
20827;DHT22;10574;52.508;13.236;2023-05-25T05:41:27;15.10;99.90
20827;DHT22;10574;52.508;13.236;2023-05-25T05:43:54;15.10;99.90
20827;DHT22;10574;52.508;13.236;2023-05-25T05:46:22;15.40;99.90
20827;DHT22;10574;52.508;13.236;2023-05-25T05:48:50;15.70;99.90
20827;DHT22;10574;52.508;13.236;2023-05-25T05:51:17;15.80;99.90
20827;DHT22;10574;52.508;13.236;2023-05-25T05:53:45;15.80;99.90
20827;DHT22;10574;52.508;13.236;2023-05-25T05:56:19;15.70;99.90
20827;DHT22;10574;52.508;13.236;2023-05-25T05:58:48;15.70;99.90
20827;DHT22;10574;52.508;13.236;2023-05-25T06:01:18;16.10;99.90
20827;DHT22;10574;52.508;13.236;2023-05-25T06:03:45;16.40;99.90
20827;DHT22;10574;52.508;13.236;2023-05-25T06:06:13;16.70;99.90
20827;DHT22;10574;52.508;13.236;2023-05-25T06:08:47;16.80;99.90
20827;DHT22;10574;52.508;13.236;2023-05-25T06:11:22;17.10;99.90
20827;DHT22;10574;52.508;13.236;2023-05-25T06:13:53;17.30;99.90
20827;DHT22;10574;52.508;13.236;2023-05-25T06:16:21;17.30;99.90
20827;DHT22;10574;52.508;13.236;2023-05-25T06:18:48;17.30;99.90
20827;DHT22;10574;52.508;13.236;2023-05-25T06:21:16;17.30;99.90
20827;DHT22;10574;52.508;13.236;2023-05-25T06:23:44;17.40;99.90
20827;DHT22;10574;52.508;13.236;2023-05-25T06:26:13;17.70;99.90
20827;DHT22;10574;52.508;13.236;2023-05-25T06:28:40;18.30;99.90
20827;DHT22;10574;52.508;13.236;2023-05-25T06:31:08;18.50;99.90
20827;DHT22;10574;52.508;13.236;2023-05-25T06:33:39;18.10;99.90
20827;DHT22;10574;52.508;13.236;2023-05-25T06:36:08;18.20;99.90
20827;DHT22;10574;52.508;13.236;2023-05-25T06:38:37;18.00;99.90
20827;DHT22;10574;52.508;13.236;2023-05-25T06:41:04;18.10;99.90
20827;DHT22;10574;52.508;13.236;2023-05-25T06:43:34;18.20;99.90
20827;DHT22;10574;52.508;13.236;2023-05-25T06:46:05;18.10;99.90
20827;DHT22;10574;52.508;13.236;2023-05-25T06:48:32;18.30;99.90
20827;DHT22;10574;52.508;13.236;2023-05-25T06:51:00;18.20;99.90
20827;DHT22;10574;52.508;13.236;2023-05-25T06:53:28;18.40;99.90
20827;DHT22;10574;52.508;13.236;2023-05-25T06:55:55;18.40;99.90
20827;DHT22;10574;52.508;13.236;2023-05-25T06:58:23;18.50;99.90
20827;DHT22;10574;52.508;13.236;2023-05-25T07:00:51;18.60;99.90
20827;DHT22;10574;52.508;13.236;2023-05-25T07:03:19;19.00;99.90
20827;DHT22;10574;52.508;13.236;2023-05-25T07:05:47;19.20;99.90
20827;DHT22;10574;52.508;13.236;2023-05-25T07:08:15;19.20;99.90
20827;DHT22;10574;52.508;13.236;2023-05-25T07:10:46;19.10;99.90
20827;DHT22;10574;52.508;13.236;2023-05-25T07:13:13;19.10;99.90
20827;DHT22;10574;52.508;13.236;2023-05-25T07:15:41;19.30;99.90
20827;DHT22;10574;52.508;13.236;2023-05-25T07:18:09;19.70;99.90
20827;DHT22;10574;52.508;13.236;2023-05-25T07:20:39;20.00;99.90
20827;DHT22;10574;52.508;13.236;2023-05-25T07:23:16;20.20;99.90
20827;DHT22;10574;52.508;13.236;2023-05-25T07:25:41;20.10;99.90
20827;DHT22;10574;52.508;13.236;2023-05-25T07:28:09;20.20;99.90
20827;DHT22;10574;52.508;13.236;2023-05-25T07:30:37;20.50;99.90
20827;DHT22;10574;52.508;13.236;2023-05-25T07:33:07;20.70;99.90
20827;DHT22;10574;52.508;13.236;2023-05-25T07:35:34;20.70;99.90
20827;DHT22;10574;52.508;13.236;2023-05-25T07:38:02;20.80;99.90
20827;DHT22;10574;52.508;13.236;2023-05-25T07:40:30;20.70;99.90
20827;DHT22;10574;52.508;13.236;2023-05-25T07:42:58;20.80;99.90
20827;DHT22;10574;52.508;13.236;2023-05-25T07:45:26;21.00;99.90
20827;DHT22;10574;52.508;13.236;2023-05-25T07:47:55;20.70;99.90
20827;DHT22;10574;52.508;13.236;2023-05-25T07:50:23;20.00;99.90
20827;DHT22;10574;52.508;13.236;2023-05-25T07:52:51;19.80;99.90
20827;DHT22;10574;52.508;13.236;2023-05-25T07:55:19;20.00;99.90
20827;DHT22;10574;52.508;13.236;2023-05-25T07:57:46;20.10;99.90
20827;DHT22;10574;52.508;13.236;2023-05-25T08:00:14;20.20;99.90
20827;DHT22;10574;52.508;13.236;2023-05-25T08:02:42;19.90;99.90
20827;DHT22;10574;52.508;13.236;2023-05-25T08:05:10;20.10;99.90
20827;DHT22;10574;52.508;13.236;2023-05-25T08:07:38;20.30;99.90
20827;DHT22;10574;52.508;13.236;2023-05-25T08:10:07;20.30;99.90
20827;DHT22;10574;52.508;13.236;2023-05-25T08:12:35;19.60;99.90
20827;DHT22;10574;52.508;13.236;2023-05-25T08:15:03;19.40;99.90
20827;DHT22;10574;52.508;13.236;2023-05-25T08:17:34;19.30;99.90
20827;DHT22;10574;52.508;13.236;2023-05-25T08:20:02;19.60;99.90
20827;DHT22;10574;52.508;13.236;2023-05-25T08:22:32;19.90;99.90
20827;DHT22;10574;52.508;13.236;2023-05-25T08:24:59;19.30;99.90
20827;DHT22;10574;52.508;13.236;2023-05-25T08:27:27;19.00;99.90
20827;DHT22;10574;52.508;13.236;2023-05-25T08:29:55;19.30;99.90
20827;DHT22;10574;52.508;13.236;2023-05-25T08:32:22;19.70;99.90
20827;DHT22;10574;52.508;13.236;2023-05-25T08:34:52;20.30;99.90
20827;DHT22;10574;52.508;13.236;2023-05-25T08:37:19;20.40;99.90
20827;DHT22;10574;52.508;13.236;2023-05-25T08:39:48;20.30;99.90
20827;DHT22;10574;52.508;13.236;2023-05-25T08:42:16;19.80;99.90
20827;DHT22;10574;52.508;13.236;2023-05-25T08:44:44;19.40;99.90
20827;DHT22;10574;52.508;13.236;2023-05-25T08:47:13;19.20;99.90
20827;DHT22;10574;52.508;13.236;2023-05-25T08:49:44;19.00;99.90
20827;DHT22;10574;52.508;13.236;2023-05-25T08:52:13;19.40;99.90
20827;DHT22;10574;52.508;13.236;2023-05-25T08:54:42;20.00;99.90
20827;DHT22;10574;52.508;13.236;2023-05-25T09:00:07;20.00;99.90
20827;DHT22;10574;52.508;13.236;2023-05-25T09:02:53;19.70;99.90
20827;DHT22;10574;52.508;13.236;2023-05-25T09:05:22;19.30;99.90
20827;DHT22;10574;52.508;13.236;2023-05-25T09:07:50;19.20;99.90
20827;DHT22;10574;52.508;13.236;2023-05-25T09:10:19;19.30;99.90
20827;DHT22;10574;52.508;13.236;2023-05-25T09:12:49;19.10;99.90
20827;DHT22;10574;52.508;13.236;2023-05-25T09:15:17;19.40;99.90
20827;DHT22;10574;52.508;13.236;2023-05-25T09:17:45;19.60;99.90
20827;DHT22;10574;52.508;13.236;2023-05-25T09:20:14;19.70;99.90
20827;DHT22;10574;52.508;13.236;2023-05-25T09:22:43;19.80;99.90
20827;DHT22;10574;52.508;13.236;2023-05-25T09:25:14;19.70;99.90
20827;DHT22;10574;52.508;13.236;2023-05-25T09:27:41;19.70;99.90
20827;DHT22;10574;52.508;13.236;2023-05-25T09:30:10;19.80;99.90
20827;DHT22;10574;52.508;13.236;2023-05-25T09:32:38;19.80;99.90
20827;DHT22;10574;52.508;13.236;2023-05-25T09:35:07;19.40;99.90
20827;DHT22;10574;52.508;13.236;2023-05-25T09:37:36;19.30;99.90
20827;DHT22;10574;52.508;13.236;2023-05-25T09:40:05;19.60;99.90
20827;DHT22;10574;52.508;13.236;2023-05-25T09:42:35;19.90;99.90
20827;DHT22;10574;52.508;13.236;2023-05-25T09:45:03;19.90;99.90
20827;DHT22;10574;52.508;13.236;2023-05-25T09:47:32;19.60;99.90
20827;DHT22;10574;52.508;13.236;2023-05-25T09:50:01;19.60;99.90
20827;DHT22;10574;52.508;13.236;2023-05-25T09:52:29;19.70;99.90
20827;DHT22;10574;52.508;13.236;2023-05-25T09:54:57;19.80;99.90
20827;DHT22;10574;52.508;13.236;2023-05-25T09:57:26;19.80;99.90
20827;DHT22;10574;52.508;13.236;2023-05-25T09:59:54;19.50;99.90
20827;DHT22;10574;52.508;13.236;2023-05-25T10:02:22;19.50;99.90
20827;DHT22;10574;52.508;13.236;2023-05-25T10:04:50;19.80;99.90
20827;DHT22;10574;52.508;13.236;2023-05-25T10:07:19;20.00;99.90
20827;DHT22;10574;52.508;13.236;2023-05-25T10:09:50;20.20;99.90
20827;DHT22;10574;52.508;13.236;2023-05-25T10:12:19;20.30;99.90
20827;DHT22;10574;52.508;13.236;2023-05-25T10:14:49;20.30;99.90
20827;DHT22;10574;52.508;13.236;2023-05-25T10:17:20;20.20;99.90
20827;DHT22;10574;52.508;13.236;2023-05-25T10:19:59;19.90;99.90
20827;DHT22;10574;52.508;13.236;2023-05-25T10:22:32;19.80;99.90
20827;DHT22;10574;52.508;13.236;2023-05-25T10:25:47;20.00;99.90
20827;DHT22;10574;52.508;13.236;2023-05-25T10:27:49;20.20;99.90
20827;DHT22;10574;52.508;13.236;2023-05-25T10:30:17;20.30;99.90
20827;DHT22;10574;52.508;13.236;2023-05-25T10:32:46;20.50;99.90
20827;DHT22;10574;52.508;13.236;2023-05-25T10:35:14;20.40;99.90
20827;DHT22;10574;52.508;13.236;2023-05-25T10:37:42;20.50;99.90
20827;DHT22;10574;52.508;13.236;2023-05-25T10:40:12;20.30;99.90
20827;DHT22;10574;52.508;13.236;2023-05-25T10:42:40;20.40;99.90
20827;DHT22;10574;52.508;13.236;2023-05-25T10:45:09;20.30;99.90
20827;DHT22;10574;52.508;13.236;2023-05-25T10:47:38;20.40;99.90
20827;DHT22;10574;52.508;13.236;2023-05-25T10:50:22;20.60;99.90
20827;DHT22;10574;52.508;13.236;2023-05-25T10:53:13;20.70;99.90
20827;DHT22;10574;52.508;13.236;2023-05-25T10:58:15;20.60;99.90
20827;DHT22;10574;52.508;13.236;2023-05-25T11:00:58;20.00;99.90
20827;DHT22;10574;52.508;13.236;2023-05-25T11:06:16;19.90;99.90
20827;DHT22;10574;52.508;13.236;2023-05-25T11:08:55;19.80;99.90
20827;DHT22;10574;52.508;13.236;2023-05-25T11:14:02;20.30;99.90
20827;DHT22;10574;52.508;13.236;2023-05-25T11:16:31;20.40;99.90
20827;DHT22;10574;52.508;13.236;2023-05-25T11:19:03;20.40;99.90
20827;DHT22;10574;52.508;13.236;2023-05-25T11:21:40;20.20;99.90
20827;DHT22;10574;52.508;13.236;2023-05-25T11:24:16;20.50;99.90
20827;DHT22;10574;52.508;13.236;2023-05-25T11:26:58;20.70;99.90
20827;DHT22;10574;52.508;13.236;2023-05-25T11:29:29;20.50;99.50
20827;DHT22;10574;52.508;13.236;2023-05-25T11:31:57;20.80;99.90
20827;DHT22;10574;52.508;13.236;2023-05-25T11:34:26;20.60;99.90
20827;DHT22;10574;52.508;13.236;2023-05-25T11:36:56;20.50;99.10
20827;DHT22;10574;52.508;13.236;2023-05-25T11:39:23;20.60;99.90
20827;DHT22;10574;52.508;13.236;2023-05-25T11:41:56;21.00;99.90
20827;DHT22;10574;52.508;13.236;2023-05-25T11:44:28;21.00;99.70
20827;DHT22;10574;52.508;13.236;2023-05-25T11:47:09;20.80;99.90
20827;DHT22;10574;52.508;13.236;2023-05-25T11:49:39;20.60;99.90
20827;DHT22;10574;52.508;13.236;2023-05-25T11:52:13;21.00;99.90
20827;DHT22;10574;52.508;13.236;2023-05-25T11:54:41;20.90;99.90
20827;DHT22;10574;52.508;13.236;2023-05-25T11:57:20;21.00;99.00
20827;DHT22;10574;52.508;13.236;2023-05-25T11:59:52;21.20;99.60
20827;DHT22;10574;52.508;13.236;2023-05-25T12:02:21;21.10;99.90
20827;DHT22;10574;52.508;13.236;2023-05-25T12:07:27;21.10;99.60
20827;DHT22;10574;52.508;13.236;2023-05-25T12:10:06;21.00;99.90
20827;DHT22;10574;52.508;13.236;2023-05-25T12:12:45;21.00;99.90
20827;DHT22;10574;52.508;13.236;2023-05-25T12:15:21;20.60;99.90
20827;DHT22;10574;52.508;13.236;2023-05-25T12:17:50;20.50;99.90
20827;DHT22;10574;52.508;13.236;2023-05-25T12:20:19;20.60;99.90
20827;DHT22;10574;52.508;13.236;2023-05-25T12:22:47;20.50;99.90
20827;DHT22;10574;52.508;13.236;2023-05-25T12:25:19;20.10;99.90
20827;DHT22;10574;52.508;13.236;2023-05-25T12:27:48;19.90;99.90
20827;DHT22;10574;52.508;13.236;2023-05-25T12:30:15;20.00;99.90
20827;DHT22;10574;52.508;13.236;2023-05-25T12:32:58;20.30;99.90
20827;DHT22;10574;52.508;13.236;2023-05-25T12:35:23;20.60;99.90
20827;DHT22;10574;52.508;13.236;2023-05-25T12:40:30;20.60;99.90
20827;DHT22;10574;52.508;13.236;2023-05-25T12:42:58;20.20;99.90
20827;DHT22;10574;52.508;13.236;2023-05-25T12:45:25;20.10;99.90
20827;DHT22;10574;52.508;13.236;2023-05-25T12:47:53;20.40;99.90
20827;DHT22;10574;52.508;13.236;2023-05-25T12:50:21;20.60;99.90
20827;DHT22;10574;52.508;13.236;2023-05-25T12:52:48;20.50;99.90
20827;DHT22;10574;52.508;13.236;2023-05-25T12:55:27;20.40;99.90
20827;DHT22;10574;52.508;13.236;2023-05-25T12:58:00;19.90;99.90
20827;DHT22;10574;52.508;13.236;2023-05-25T13:00:36;20.10;99.90
20827;DHT22;10574;52.508;13.236;2023-05-25T13:03:06;20.20;99.90
20827;DHT22;10574;52.508;13.236;2023-05-25T13:05:34;20.30;99.90
20827;DHT22;10574;52.508;13.236;2023-05-25T13:08:04;20.10;99.90
20827;DHT22;10574;52.508;13.236;2023-05-25T13:10:35;20.00;99.90
20827;DHT22;10574;52.508;13.236;2023-05-25T13:13:02;19.80;99.90
20827;DHT22;10574;52.508;13.236;2023-05-25T13:15:30;20.00;99.90
20827;DHT22;10574;52.508;13.236;2023-05-25T13:17:58;19.90;99.90
20827;DHT22;10574;52.508;13.236;2023-05-25T13:20:27;19.70;99.90
20827;DHT22;10574;52.508;13.236;2023-05-25T13:22:58;19.70;99.90
20827;DHT22;10574;52.508;13.236;2023-05-25T13:25:26;19.60;99.90
20827;DHT22;10574;52.508;13.236;2023-05-25T13:27:54;19.50;99.90
20827;DHT22;10574;52.508;13.236;2023-05-25T13:30:23;19.60;99.90
20827;DHT22;10574;52.508;13.236;2023-05-25T13:32:52;20.10;99.90
20827;DHT22;10574;52.508;13.236;2023-05-25T13:35:20;20.60;99.90
20827;DHT22;10574;52.508;13.236;2023-05-25T13:38:04;20.50;99.90
20827;DHT22;10574;52.508;13.236;2023-05-25T13:40:32;20.50;99.90
20827;DHT22;10574;52.508;13.236;2023-05-25T13:43:00;20.40;99.90
20827;DHT22;10574;52.508;13.236;2023-05-25T13:45:28;20.40;99.90
20827;DHT22;10574;52.508;13.236;2023-05-25T13:47:56;20.30;99.90
20827;DHT22;10574;52.508;13.236;2023-05-25T13:50:45;20.20;99.90
20827;DHT22;10574;52.508;13.236;2023-05-25T13:53:13;20.40;99.90
20827;DHT22;10574;52.508;13.236;2023-05-25T13:55:41;20.90;99.90
20827;DHT22;10574;52.508;13.236;2023-05-25T13:58:09;21.30;99.90
20827;DHT22;10574;52.508;13.236;2023-05-25T14:00:37;21.40;99.90
20827;DHT22;10574;52.508;13.236;2023-05-25T14:03:05;21.10;99.90
20827;DHT22;10574;52.508;13.236;2023-05-25T14:05:33;21.20;99.90
20827;DHT22;10574;52.508;13.236;2023-05-25T14:08:01;21.30;99.90
20827;DHT22;10574;52.508;13.236;2023-05-25T14:10:30;21.30;99.90
20827;DHT22;10574;52.508;13.236;2023-05-25T14:12:58;21.50;99.90
20827;DHT22;10574;52.508;13.236;2023-05-25T14:15:26;21.60;99.90
20827;DHT22;10574;52.508;13.236;2023-05-25T14:17:54;21.50;99.90
20827;DHT22;10574;52.508;13.236;2023-05-25T14:20:22;21.40;99.90
20827;DHT22;10574;52.508;13.236;2023-05-25T14:22:52;21.50;99.90
20827;DHT22;10574;52.508;13.236;2023-05-25T14:25:19;21.40;99.90
20827;DHT22;10574;52.508;13.236;2023-05-25T14:27:47;21.50;99.90
20827;DHT22;10574;52.508;13.236;2023-05-25T14:30:15;21.50;99.90
20827;DHT22;10574;52.508;13.236;2023-05-25T14:32:43;21.80;99.90
20827;DHT22;10574;52.508;13.236;2023-05-25T14:35:11;21.70;99.90
20827;DHT22;10574;52.508;13.236;2023-05-25T14:37:39;21.50;99.60
20827;DHT22;10574;52.508;13.236;2023-05-25T14:40:09;21.50;99.90
20827;DHT22;10574;52.508;13.236;2023-05-25T14:42:40;21.20;99.90
20827;DHT22;10574;52.508;13.236;2023-05-25T14:45:08;21.30;99.90
20827;DHT22;10574;52.508;13.236;2023-05-25T14:47:36;21.30;99.90
20827;DHT22;10574;52.508;13.236;2023-05-25T14:50:04;21.30;99.90
20827;DHT22;10574;52.508;13.236;2023-05-25T14:52:32;21.30;99.90
20827;DHT22;10574;52.508;13.236;2023-05-25T14:55:01;21.50;99.90
20827;DHT22;10574;52.508;13.236;2023-05-25T14:57:29;21.30;99.00
20827;DHT22;10574;52.508;13.236;2023-05-25T14:59:59;21.30;99.20
20827;DHT22;10574;52.508;13.236;2023-05-25T15:02:27;21.10;99.30
20827;DHT22;10574;52.508;13.236;2023-05-25T15:04:55;21.10;98.30
20827;DHT22;10574;52.508;13.236;2023-05-25T15:07:22;21.30;99.00
20827;DHT22;10574;52.508;13.236;2023-05-25T15:09:50;21.10;98.20
20827;DHT22;10574;52.508;13.236;2023-05-25T15:12:18;20.80;98.40
20827;DHT22;10574;52.508;13.236;2023-05-25T15:14:46;20.80;99.50
20827;DHT22;10574;52.508;13.236;2023-05-25T15:17:14;21.00;99.80
20827;DHT22;10574;52.508;13.236;2023-05-25T15:19:42;21.10;99.50
20827;DHT22;10574;52.508;13.236;2023-05-25T15:22:10;21.20;98.90
20827;DHT22;10574;52.508;13.236;2023-05-25T15:24:37;21.30;99.20
20827;DHT22;10574;52.508;13.236;2023-05-25T15:27:05;21.30;97.40
20827;DHT22;10574;52.508;13.236;2023-05-25T15:29:33;21.40;99.20
20827;DHT22;10574;52.508;13.236;2023-05-25T15:32:01;21.60;99.20
20827;DHT22;10574;52.508;13.236;2023-05-25T15:34:29;21.50;98.20
20827;DHT22;10574;52.508;13.236;2023-05-25T15:36:56;21.50;98.50
20827;DHT22;10574;52.508;13.236;2023-05-25T15:39:25;21.40;98.90
20827;DHT22;10574;52.508;13.236;2023-05-25T15:41:53;21.30;98.00
20827;DHT22;10574;52.508;13.236;2023-05-25T15:44:21;21.30;98.90
20827;DHT22;10574;52.508;13.236;2023-05-25T15:46:49;21.30;98.90
20827;DHT22;10574;52.508;13.236;2023-05-25T15:49:17;21.30;99.30